createdAt,value
2022-10-17T00:01:04.412Z,15.45
2022-10-17T00:03:31.452Z,15.42
2022-10-17T00:05:58.556Z,15.39
2022-10-17T00:08:25.952Z,15.36
2022-10-17T00:11:00.870Z,15.29
2022-10-17T00:13:28.189Z,15.25
2022-10-17T00:15:55.261Z,15.21
2022-10-17T00:18:22.742Z,15.19
2022-10-17T00:20:49.690Z,15.13
2022-10-17T00:23:16.733Z,15.08
2022-10-17T00:25:43.833Z,15.09
2022-10-17T00:28:12.211Z,15.07
2022-10-17T00:30:39.451Z,15.08
2022-10-17T00:33:06.581Z,15.09
2022-10-17T00:35:33.811Z,15.09
2022-10-17T00:38:00.741Z,15.08
2022-10-17T00:40:27.740Z,15.08
2022-10-17T00:42:54.662Z,15.06
2022-10-17T00:45:29.611Z,15.06
2022-10-17T00:48:04.111Z,15.06
2022-10-17T00:50:31.773Z,15.08
2022-10-17T00:53:03.041Z,15.11
2022-10-17T00:55:33.481Z,15.12
2022-10-17T00:58:04.122Z,15.12
2022-10-17T01:00:31.401Z,15.12
2022-10-17T01:02:58.772Z,15.14
2022-10-17T01:05:26.112Z,15.14
2022-10-17T01:07:54.281Z,15.13
2022-10-17T01:13:11.801Z,15.06
2022-10-17T01:16:08.012Z,15.05
2022-10-17T01:18:45.471Z,15.04
2022-10-17T01:21:38.471Z,15.00
2022-10-17T01:24:14.231Z,14.98
2022-10-17T01:27:02.662Z,14.95
2022-10-17T01:29:36.954Z,14.92
2022-10-17T01:32:34.619Z,14.85
2022-10-17T01:35:12.355Z,14.82
2022-10-17T01:40:46.152Z,14.79
2022-10-17T01:43:23.471Z,14.75
2022-10-17T01:45:54.491Z,14.69
2022-10-17T01:48:26.031Z,14.70
2022-10-17T01:50:58.851Z,14.68
2022-10-17T01:53:34.737Z,14.66
2022-10-17T01:56:04.794Z,14.62
2022-10-17T01:58:42.592Z,14.64
2022-10-17T02:01:12.613Z,14.63
2022-10-17T02:03:43.431Z,14.63
2022-10-17T02:06:10.471Z,14.65
2022-10-17T02:08:49.253Z,14.64
2022-10-17T02:11:26.491Z,14.64
2022-10-17T02:14:24.251Z,14.67
2022-10-17T02:17:16.352Z,14.69
2022-10-17T02:20:08.951Z,14.70
2022-10-17T02:22:44.232Z,14.64
2022-10-17T02:25:35.991Z,14.67
2022-10-17T02:28:03.390Z,14.62
2022-10-17T02:30:37.411Z,14.58
2022-10-17T02:33:04.811Z,14.55
2022-10-17T02:35:36.331Z,14.50
2022-10-17T02:38:06.829Z,14.44
2022-10-17T02:40:34.971Z,14.41
2022-10-17T02:43:02.115Z,14.39
2022-10-17T02:45:36.044Z,14.38
2022-10-17T02:48:47.551Z,14.31
2022-10-17T02:51:33.011Z,14.27
2022-10-17T02:54:05.821Z,14.20
2022-10-17T02:56:41.253Z,14.18
2022-10-17T02:59:12.531Z,14.17
2022-10-17T03:01:40.115Z,14.17
2022-10-17T03:04:16.293Z,14.13
2022-10-17T03:06:43.792Z,14.14
2022-10-17T03:09:10.811Z,14.14
2022-10-17T03:11:37.879Z,14.17
2022-10-17T03:14:07.291Z,14.16
2022-10-17T03:16:34.493Z,14.16
2022-10-17T03:19:01.599Z,14.19
2022-10-17T03:21:28.679Z,14.19
2022-10-17T03:23:56.311Z,14.18
2022-10-17T03:26:24.172Z,14.18
2022-10-17T03:28:53.666Z,14.17
2022-10-17T03:31:22.712Z,14.02
2022-10-17T03:33:51.071Z,14.04
2022-10-17T03:36:19.640Z,14.01
2022-10-17T03:38:48.279Z,14.00
2022-10-17T03:41:17.615Z,13.99
2022-10-17T03:43:44.793Z,14.01
2022-10-17T03:46:12.577Z,14.02
2022-10-17T03:48:40.033Z,14.03
2022-10-17T03:51:10.071Z,14.00
2022-10-17T03:53:43.631Z,13.96
2022-10-17T03:56:15.254Z,13.94
2022-10-17T03:58:43.611Z,13.90
2022-10-17T04:01:14.207Z,13.83
2022-10-17T04:03:41.771Z,13.84
2022-10-17T04:06:11.013Z,13.80
2022-10-17T04:08:39.899Z,13.75
2022-10-17T04:11:21.593Z,13.76
2022-10-17T04:13:54.773Z,13.69
2022-10-17T04:16:22.815Z,13.69
2022-10-17T04:19:14.212Z,13.68
2022-10-17T04:21:45.148Z,13.66
2022-10-17T04:24:13.842Z,13.65
2022-10-17T04:26:56.041Z,13.65
2022-10-17T04:29:26.633Z,13.66
2022-10-17T04:32:04.513Z,13.60
2022-10-17T04:34:40.230Z,13.66
2022-10-17T04:37:07.301Z,13.67
2022-10-17T04:39:35.107Z,13.69
2022-10-17T04:42:03.425Z,13.69
2022-10-17T04:44:31.330Z,13.70
2022-10-17T04:46:59.407Z,13.68
2022-10-17T04:49:27.017Z,13.65
2022-10-17T04:51:58.918Z,13.58
2022-10-17T04:54:31.557Z,13.51
2022-10-17T04:57:06.317Z,13.48
2022-10-17T04:59:33.973Z,13.40
2022-10-17T05:02:15.040Z,13.39
2022-10-17T05:04:42.301Z,13.27
2022-10-17T05:07:11.266Z,13.30
2022-10-17T05:09:38.164Z,13.29
2022-10-17T05:12:08.105Z,13.29
2022-10-17T05:14:39.172Z,13.27
2022-10-17T05:17:06.166Z,13.17
2022-10-17T05:19:33.128Z,13.20
2022-10-17T05:22:00.229Z,13.21
2022-10-17T05:24:27.177Z,13.21
2022-10-17T05:26:54.107Z,13.20
2022-10-17T05:29:21.205Z,13.23
2022-10-17T05:31:53.563Z,13.25
2022-10-17T05:34:20.637Z,13.27
2022-10-17T05:36:47.646Z,13.27
2022-10-17T05:39:19.934Z,13.33
2022-10-17T05:41:49.213Z,13.37
2022-10-17T05:44:16.675Z,13.41
2022-10-17T05:46:49.926Z,13.44
2022-10-17T05:49:31.913Z,13.46
2022-10-17T05:52:01.205Z,13.45
2022-10-17T05:54:32.644Z,13.48
2022-10-17T05:57:00.924Z,13.49
2022-10-17T05:59:31.314Z,13.52
2022-10-17T06:02:05.893Z,13.53
2022-10-17T06:04:33.096Z,13.61
2022-10-17T06:07:02.132Z,13.66
2022-10-17T06:09:30.195Z,13.74
2022-10-17T06:11:57.292Z,13.76
2022-10-17T06:14:24.274Z,13.73
2022-10-17T06:16:55.363Z,13.79
2022-10-17T06:19:22.426Z,13.89
2022-10-17T06:21:49.421Z,13.98
2022-10-17T06:24:20.716Z,14.07
2022-10-17T06:26:50.055Z,14.18
2022-10-17T06:29:18.175Z,14.26
2022-10-17T06:31:51.067Z,14.35
2022-10-17T06:34:19.245Z,14.43
2022-10-17T06:36:47.172Z,14.52
2022-10-17T06:39:14.806Z,14.58
2022-10-17T06:42:02.162Z,14.74
2022-10-17T06:44:54.078Z,14.82
2022-10-17T06:47:41.011Z,14.94
2022-10-17T06:50:27.354Z,15.05
2022-10-17T06:53:05.417Z,15.13
2022-10-17T06:56:07.205Z,15.22
2022-10-17T06:59:06.587Z,15.31
2022-10-17T07:01:39.785Z,15.44
2022-10-17T07:04:08.824Z,15.53
2022-10-17T07:06:35.735Z,15.62
2022-10-17T07:09:10.986Z,15.72
2022-10-17T07:11:38.264Z,15.81
2022-10-17T07:14:05.232Z,15.96
2022-10-17T07:16:34.354Z,16.06
2022-10-17T07:19:08.045Z,16.15
2022-10-17T07:21:39.195Z,16.23
2022-10-17T07:24:08.544Z,16.33
2022-10-17T07:26:35.449Z,16.43
2022-10-17T07:29:02.711Z,16.51
2022-10-17T07:31:48.918Z,16.62
2022-10-17T07:34:16.146Z,16.71
2022-10-17T07:36:44.594Z,16.79
2022-10-17T07:39:13.795Z,16.92
2022-10-17T07:41:41.200Z,17.04
2022-10-17T07:44:08.406Z,17.16
2022-10-17T07:46:41.971Z,17.25
2022-10-17T07:49:09.092Z,17.34
2022-10-17T07:51:36.253Z,17.44
2022-10-17T07:54:05.471Z,17.51
2022-10-17T07:56:32.494Z,17.59
2022-10-17T07:59:00.810Z,17.70
2022-10-17T08:01:30.733Z,17.76
2022-10-17T08:03:57.717Z,17.83
2022-10-17T08:06:25.336Z,17.95
2022-10-17T08:08:52.434Z,18.04
2022-10-17T08:11:19.555Z,18.16
2022-10-17T08:13:46.614Z,18.20
2022-10-17T08:16:13.994Z,18.30
2022-10-17T08:18:42.799Z,18.41
2022-10-17T08:21:10.345Z,18.51
2022-10-17T08:23:37.774Z,18.61
2022-10-17T08:26:08.328Z,18.63
2022-10-17T08:28:36.156Z,18.81
2022-10-17T08:31:08.535Z,18.93
2022-10-17T08:33:35.604Z,19.03
2022-10-17T08:36:04.244Z,19.11
2022-10-17T08:38:35.303Z,19.20
2022-10-17T08:41:07.301Z,19.31
2022-10-17T08:43:43.359Z,19.44
2022-10-17T08:46:10.982Z,19.57
2022-10-17T08:48:46.365Z,19.71
2022-10-17T08:51:28.527Z,19.84
2022-10-17T08:54:17.257Z,20.00
2022-10-17T08:56:54.545Z,20.12
2022-10-17T08:59:27.757Z,20.30
2022-10-17T09:02:12.448Z,20.45
2022-10-17T09:05:10.070Z,20.64
2022-10-17T09:07:51.982Z,20.85
2022-10-17T09:10:41.638Z,21.03
2022-10-17T09:13:17.436Z,21.25
2022-10-17T09:15:55.054Z,21.41
2022-10-17T09:18:33.215Z,21.57
2022-10-17T09:21:14.039Z,21.74
2022-10-17T09:23:56.073Z,21.84
2022-10-17T09:26:31.036Z,21.99
2022-10-17T09:29:00.926Z,22.10
2022-10-17T09:31:41.485Z,22.22
2022-10-17T09:34:10.736Z,22.37
2022-10-17T09:36:42.665Z,22.46
2022-10-17T09:39:17.175Z,22.58
2022-10-17T09:41:50.404Z,22.78
2022-10-17T09:44:26.538Z,22.91
2022-10-17T09:47:20.874Z,23.13
2022-10-17T09:49:49.359Z,23.26
2022-10-17T09:52:24.276Z,23.42
2022-10-17T09:54:56.227Z,23.52
2022-10-17T09:57:23.598Z,23.54
2022-10-17T09:59:59.303Z,23.75
2022-10-17T10:02:28.624Z,23.96
2022-10-17T10:05:05.635Z,24.02
2022-10-17T10:07:37.113Z,24.16
2022-10-17T10:10:07.374Z,24.29
2022-10-17T10:12:38.295Z,24.41
2022-10-17T10:15:38.961Z,24.57
2022-10-17T10:18:25.931Z,24.61
2022-10-17T10:21:16.180Z,24.72
2022-10-17T10:24:12.086Z,24.83
2022-10-17T10:26:47.343Z,24.89
2022-10-17T10:29:34.379Z,25.00
2022-10-17T10:32:20.254Z,25.05
2022-10-17T10:34:53.366Z,25.02
2022-10-17T10:37:28.170Z,25.13
2022-10-17T10:39:58.684Z,25.16
2022-10-17T10:42:28.677Z,25.18
2022-10-17T10:45:00.026Z,25.25
2022-10-17T10:47:29.819Z,25.34
2022-10-17T10:50:27.992Z,25.37
2022-10-17T10:53:02.327Z,25.53
2022-10-17T10:55:53.874Z,25.68
2022-10-17T10:58:44.903Z,25.70
2022-10-17T11:13:23.666Z,25.58
2022-10-17T11:16:12.156Z,25.68
2022-10-17T11:18:49.456Z,25.84
2022-10-17T11:21:33.705Z,26.02
2022-10-17T11:24:06.973Z,26.19
2022-10-17T11:26:42.918Z,26.30
2022-10-17T11:29:12.675Z,26.51
2022-10-17T11:31:45.274Z,26.69
2022-10-17T11:34:25.458Z,26.74
2022-10-17T11:36:57.255Z,26.96
2022-10-17T11:39:42.231Z,27.02
2022-10-17T11:42:26.194Z,27.09
2022-10-17T11:45:00.737Z,27.24
2022-10-17T11:47:30.555Z,27.42
2022-10-17T11:53:19.796Z,27.51
2022-10-17T11:55:48.097Z,27.76
2022-10-17T11:58:38.705Z,27.87
2022-10-17T12:01:36.224Z,27.92
2022-10-17T12:04:21.289Z,27.98
2022-10-17T12:07:17.615Z,28.14
2022-10-17T12:10:06.619Z,28.48
2022-10-17T12:12:35.374Z,28.46
2022-10-17T12:15:14.442Z,28.81
2022-10-17T12:17:44.854Z,28.83
2022-10-17T12:20:21.338Z,28.87
2022-10-17T12:22:54.064Z,28.66
2022-10-17T12:25:32.188Z,28.84
2022-10-17T12:28:24.200Z,28.78
2022-10-17T12:30:52.798Z,29.18
2022-10-17T12:33:33.749Z,29.16
2022-10-17T12:36:19.168Z,29.09
2022-10-17T12:39:11.930Z,28.92
2022-10-17T12:41:38.873Z,28.96
2022-10-17T12:44:15.133Z,29.08
2022-10-17T12:46:58.451Z,29.24
2022-10-17T12:49:44.329Z,29.33
2022-10-17T12:52:25.418Z,29.48
2022-10-17T12:55:11.474Z,29.42
2022-10-17T12:58:03.788Z,29.35
2022-10-17T13:00:59.589Z,29.58
2022-10-17T13:03:35.158Z,29.65
2022-10-17T13:06:07.748Z,29.70
2022-10-17T13:08:40.308Z,30.32
2022-10-17T13:11:09.189Z,30.80
2022-10-17T13:14:03.960Z,31.31
2022-10-17T13:16:39.458Z,31.92
2022-10-17T13:19:17.898Z,32.52
2022-10-17T13:21:59.921Z,32.71
2022-10-17T13:24:39.958Z,32.91
2022-10-17T13:27:26.875Z,33.35
2022-10-17T13:29:56.455Z,33.65
2022-10-17T13:32:25.708Z,33.84
2022-10-17T13:35:07.628Z,34.22
2022-10-17T13:37:35.706Z,34.55
2022-10-17T13:40:17.449Z,35.26
2022-10-17T13:42:52.709Z,35.11
2022-10-17T13:45:45.699Z,35.30
2022-10-17T13:48:27.673Z,35.53
2022-10-17T13:51:01.768Z,35.19
2022-10-17T13:53:37.834Z,35.35
2022-10-17T13:56:27.914Z,35.25
2022-10-17T13:59:08.488Z,34.08
2022-10-17T14:01:37.691Z,33.22
2022-10-17T14:04:09.658Z,32.21
2022-10-17T14:06:47.564Z,31.35
2022-10-17T14:09:27.128Z,30.44
2022-10-17T14:12:06.428Z,29.52
2022-10-17T14:14:51.720Z,28.85
2022-10-17T14:17:28.884Z,28.31
2022-10-17T14:23:17.520Z,27.23
2022-10-17T14:25:41.504Z,26.73
2022-10-17T14:28:11.930Z,26.45
2022-10-17T14:30:56.303Z,26.03
2022-10-17T14:33:30.450Z,25.84
2022-10-17T14:36:00.268Z,25.53
2022-10-17T14:38:29.312Z,25.28
2022-10-17T14:44:07.234Z,24.88
2022-10-17T14:46:38.009Z,24.73
2022-10-17T14:49:32.818Z,24.62
2022-10-17T14:52:18.965Z,24.39
2022-10-17T14:54:48.977Z,24.26
2022-10-17T14:57:16.036Z,24.13
2022-10-17T14:59:53.728Z,23.94
2022-10-17T15:02:22.659Z,23.81
2022-10-17T15:04:49.650Z,23.74
2022-10-17T15:07:17.829Z,23.60
2022-10-17T15:09:47.588Z,23.47
2022-10-17T15:12:21.052Z,23.34
2022-10-17T15:14:48.692Z,23.22
2022-10-17T15:17:20.968Z,23.09
2022-10-17T15:19:48.671Z,23.05
2022-10-17T15:22:16.404Z,23.00
2022-10-17T15:24:43.450Z,22.89
2022-10-17T15:27:22.118Z,22.78
2022-10-17T15:29:50.205Z,22.69
2022-10-17T15:32:17.350Z,22.65
2022-10-17T15:34:44.729Z,22.61
2022-10-17T15:37:23.435Z,22.52
2022-10-17T15:39:54.763Z,22.43
2022-10-17T15:42:29.710Z,22.37
2022-10-17T15:44:57.480Z,22.28
2022-10-17T15:47:35.521Z,22.19
2022-10-17T15:50:03.018Z,22.06
2022-10-17T15:52:29.937Z,22.00
2022-10-17T15:54:59.517Z,21.91
2022-10-17T15:57:33.830Z,21.81
2022-10-17T16:00:00.976Z,21.74
2022-10-17T16:02:28.188Z,21.65
2022-10-17T16:04:55.226Z,21.57
2022-10-17T16:07:22.279Z,21.48
2022-10-17T16:09:49.272Z,21.43
2022-10-17T16:12:26.003Z,21.32
2022-10-17T16:14:53.058Z,21.23
2022-10-17T16:17:19.959Z,21.16
2022-10-17T16:19:47.507Z,21.08
2022-10-17T16:22:23.229Z,20.98
2022-10-17T16:24:50.327Z,20.92
2022-10-17T16:27:17.318Z,20.83
2022-10-17T16:29:44.487Z,20.78
2022-10-17T16:32:11.489Z,20.71
2022-10-17T16:34:38.508Z,20.64
2022-10-17T16:37:05.479Z,20.58
2022-10-17T16:39:32.578Z,20.52
2022-10-17T16:41:59.580Z,20.47
2022-10-17T16:44:26.608Z,20.40
2022-10-17T16:46:53.569Z,20.35
2022-10-17T16:49:20.479Z,20.30
2022-10-17T16:51:47.467Z,20.24
2022-10-17T16:54:14.409Z,20.21
2022-10-17T16:56:42.369Z,20.15
2022-10-17T16:59:10.990Z,20.08
2022-10-17T17:01:38.599Z,20.01
2022-10-17T17:04:05.886Z,19.96
2022-10-17T17:06:32.903Z,19.90
2022-10-17T17:09:00.050Z,19.85
2022-10-17T17:11:28.451Z,19.81
2022-10-17T17:13:57.508Z,19.77
2022-10-17T17:16:26.751Z,19.71
2022-10-17T17:19:03.069Z,19.67
2022-10-17T17:21:31.797Z,19.65
2022-10-17T17:24:00.600Z,19.60
2022-10-17T17:26:30.249Z,19.59
2022-10-17T17:28:59.963Z,19.53
2022-10-17T17:31:31.885Z,19.52
2022-10-17T17:33:59.330Z,19.45
2022-10-17T17:36:28.649Z,19.45
2022-10-17T17:38:58.508Z,19.44
2022-10-17T17:41:26.270Z,19.41
2022-10-17T17:43:54.156Z,19.39
2022-10-17T17:46:22.268Z,19.34
2022-10-17T17:48:50.740Z,19.32
2022-10-17T17:51:20.671Z,19.29
2022-10-17T17:53:48.288Z,19.23
2022-10-17T17:56:19.199Z,19.19
2022-10-17T17:58:48.550Z,19.18
2022-10-17T18:01:20.517Z,19.13
2022-10-17T18:03:48.979Z,19.14
2022-10-17T18:06:17.131Z,19.10
2022-10-17T18:08:45.308Z,19.05
2022-10-17T18:11:12.566Z,19.04
2022-10-17T18:13:39.599Z,18.96
2022-10-17T18:16:17.268Z,18.96
2022-10-17T18:18:45.884Z,18.92
2022-10-17T18:21:14.046Z,18.86
2022-10-17T18:23:41.821Z,18.82
2022-10-17T18:26:09.729Z,18.76
2022-10-17T18:31:32.330Z,18.67
2022-10-17T18:34:02.834Z,18.61
2022-10-17T18:36:31.008Z,18.56
2022-10-17T18:39:00.050Z,18.50
2022-10-17T18:41:28.113Z,18.47
2022-10-17T18:43:56.345Z,18.46
2022-10-17T18:46:30.668Z,18.44
2022-10-17T18:48:58.297Z,18.42
2022-10-17T18:51:26.244Z,18.41
2022-10-17T18:53:56.258Z,18.39
2022-10-17T18:56:23.908Z,18.30
2022-10-17T18:58:51.632Z,18.24
2022-10-17T19:01:21.284Z,18.14
2022-10-17T19:03:50.872Z,18.01
2022-10-17T19:06:20.648Z,18.03
2022-10-17T19:08:48.316Z,17.99
2022-10-17T19:11:26.968Z,17.87
2022-10-17T19:13:56.069Z,17.81
2022-10-17T19:16:27.590Z,17.78
2022-10-17T19:19:01.709Z,17.60
2022-10-17T19:21:28.852Z,17.60
2022-10-17T19:23:59.538Z,17.49
2022-10-17T19:26:28.678Z,17.43
2022-10-17T19:28:56.593Z,17.42
2022-10-17T19:31:27.169Z,17.39
2022-10-17T19:33:56.125Z,17.38
2022-10-17T19:36:27.642Z,17.33
2022-10-17T19:38:57.850Z,17.33
2022-10-17T19:41:24.859Z,17.39
2022-10-17T19:43:51.830Z,17.40
2022-10-17T19:46:23.991Z,17.40
2022-10-17T19:48:52.148Z,17.42
2022-10-17T19:51:20.438Z,17.51
2022-10-17T19:53:47.698Z,17.56
2022-10-17T19:56:18.671Z,17.59
2022-10-17T19:58:46.928Z,17.39
2022-10-17T20:01:17.404Z,17.38
2022-10-17T20:03:44.898Z,17.17
2022-10-17T20:06:12.189Z,17.15
2022-10-17T20:08:40.818Z,17.11
2022-10-17T20:11:11.138Z,17.08
2022-10-17T20:13:39.138Z,17.07
2022-10-17T20:16:08.329Z,17.08
2022-10-17T20:18:35.711Z,17.06
2022-10-17T20:21:05.280Z,17.02
2022-10-17T20:23:32.809Z,17.04
2022-10-17T20:26:13.528Z,17.02
2022-10-17T20:28:49.584Z,17.02
2022-10-17T20:31:16.731Z,17.04
2022-10-17T20:33:43.781Z,17.04
2022-10-17T20:36:13.144Z,16.96
2022-10-17T20:38:40.876Z,16.94
2022-10-17T20:41:09.836Z,16.92
2022-10-17T20:43:37.648Z,16.88
2022-10-17T20:46:22.828Z,16.92
2022-10-17T20:48:55.628Z,16.90
2022-10-17T20:51:22.659Z,16.92
2022-10-17T20:53:49.615Z,16.84
2022-10-17T20:56:26.228Z,16.81
2022-10-17T20:58:55.848Z,16.78
2022-10-17T21:01:23.686Z,16.75
2022-10-17T21:03:51.359Z,16.73
2022-10-17T21:06:19.350Z,16.67
2022-10-17T21:08:47.408Z,16.62
2022-10-17T21:11:19.800Z,16.55
2022-10-17T21:13:48.108Z,16.56
2022-10-17T21:16:16.673Z,16.51
2022-10-17T21:18:45.067Z,16.50
2022-10-17T21:21:21.008Z,16.50
2022-10-17T21:23:49.718Z,16.51
2022-10-17T21:26:18.389Z,16.52
2022-10-17T21:28:46.944Z,16.56
2022-10-17T21:31:22.308Z,16.53
2022-10-17T21:33:51.966Z,16.45
2022-10-17T21:36:19.795Z,16.40
2022-10-17T21:38:48.677Z,16.34
2022-10-17T21:41:17.980Z,16.30
2022-10-17T21:43:45.031Z,16.27
2022-10-17T21:46:14.883Z,16.25
2022-10-17T21:48:41.908Z,16.19
2022-10-17T21:51:12.028Z,16.17
2022-10-17T21:53:39.588Z,16.15
2022-10-17T21:56:15.839Z,16.11
2022-10-17T21:58:43.820Z,15.96
2022-10-17T22:01:14.839Z,15.95
2022-10-17T22:03:46.684Z,15.94
2022-10-17T22:09:11.830Z,15.92
2022-10-17T22:11:38.888Z,15.92
2022-10-17T22:14:13.488Z,15.90
2022-10-17T22:16:41.131Z,15.90
2022-10-17T22:19:08.979Z,15.88
2022-10-17T22:21:37.390Z,15.86
2022-10-17T22:24:07.328Z,15.87
2022-10-17T22:26:36.451Z,15.88
2022-10-17T22:29:05.509Z,15.85
2022-10-17T22:31:32.993Z,15.85
2022-10-17T22:33:59.955Z,15.83
2022-10-17T22:36:27.258Z,15.80
2022-10-17T22:38:54.268Z,15.76
2022-10-17T22:41:21.388Z,15.77
2022-10-17T22:43:48.441Z,15.75
2022-10-17T22:46:18.898Z,15.71
2022-10-17T22:48:46.248Z,15.68
2022-10-17T22:51:13.537Z,15.67
2022-10-17T22:53:40.631Z,15.66
2022-10-17T22:56:11.328Z,15.61
2022-10-17T22:58:38.828Z,15.58
2022-10-17T23:01:07.350Z,15.56
2022-10-17T23:03:35.299Z,15.53
2022-10-17T23:06:03.098Z,15.50
2022-10-17T23:08:30.088Z,15.50
2022-10-17T23:10:57.239Z,15.50
2022-10-17T23:13:24.319Z,15.45
2022-10-17T23:15:56.580Z,15.44
2022-10-17T23:18:25.230Z,15.37
2022-10-17T23:20:52.868Z,15.36
2022-10-17T23:23:20.211Z,15.34
2022-10-17T23:25:48.049Z,15.33
2022-10-17T23:28:15.148Z,15.31
2022-10-17T23:30:42.241Z,15.26
2022-10-17T23:33:12.169Z,15.21
2022-10-17T23:35:39.278Z,15.20
2022-10-17T23:38:06.239Z,15.18
2022-10-17T23:40:35.008Z,15.14
2022-10-17T23:43:02.950Z,15.12
2022-10-17T23:45:33.404Z,15.11
2022-10-17T23:48:03.268Z,15.11
2022-10-17T23:50:30.315Z,15.10
2022-10-17T23:52:57.192Z,15.08
2022-10-17T23:55:24.129Z,15.05
2022-10-17T23:57:51.110Z,14.96
